Piedmont, KS (67122)

7:36 PM CDT on August 22, 2014 (GMT -0500)
HADS FALL RIVER LAKE NEAR FALL RIVER KS US USARMY-COE | Change Station
CLOSE
Current Station
Personal Weather Station
Location: Fall River, KS
Elevation: 1020 ft
Nearby Weather Stations

Elev 1020 ft 37.65 °N, 96.08 °W | Updated 36 minutes ago

Clear
Clear
83 °F
Feels Like 89 °F
N
4
Wind Variable Wind from SSE
Gusts 0.0 mph

Today
High -- | Low -- °F
--% Chance of Precip.
Yesterday
High -- | Low -- °F
Precip. -- in
6:47 AM 8:08 PM
Waning Crescent, 6% visible
Pressure 29.82 in
Visibility 10.0 miles
Clouds Clear
Heat Index 89 °F
Dew Point 72 °F
Humidity 71%
Rainfall 0.00 in
Snow Depth Not available.
UV 1 out of 12
Pollen 11.20 out of 12
Air Quality Not available.
Flu Activity Not available.
METAR KAAO 222354Z AUTO 16010G20KT 10SM CLR 34/19 A2987 RMK AO2 LTG DSNT NW SLP097 T03440194 10372 20344 55001

More Conditions Fewer Conditions

Pressure 29.82 in
Visibility 10.0 miles
Clouds Clear
Heat Index 89 °F
Dew Point 72 °F
Humidity 71%
Rainfall 0.00 in
Snow Depth Not available.
UV 1 out of 12
Pollen 11.20 out of 12
Air Quality Not available.
Flu Activity Not available.
METAR KAAO 222354Z AUTO 16010G20KT 10SM CLR 34/19 A2987 RMK AO2 LTG DSNT NW SLP097 T03440194 10372 20344 55001

More Conditions Fewer Conditions

10-Day Weather Forecast

Almanac

Astronomy

Aug. 22, 2014 Rise Set
Actual Time 6:47 AM CDT 8:08 PM CDT
Civil Twilight 6:20 AM CDT 8:36 PM CDT
Nautical Twilight 5:47 AM CDT 9:08 PM CDT
Astronomical Twilight 5:12 AM CDT 9:43 PM CDT
Moon 4:12 AM CDT (8/22) 6:17 PM CDT (8/22)
Length of Visible Light 14h 16m
Length of Day
13h 21m
Tomorrow will be 2m 13s shorter.
Waning Crescent, 6% of the Moon is Illuminated
Today
Waning Crescent
Aug 25
New
Sep 2
First Quarter
Sep 8
Full
Sep 15
Last Quarter

Today's Extremes

State Highs State Lows

Community

WunderPhotos

Upload Photos

1,746,322 photos uploaded!

WunderBlogs® & News

Nearby

Snow Depth

Station Depth Elevation
No new snow has been reported.

Earthquake Activity

City Distance Mag. Time & Date
Cherokee, Oklahoma 115 miles 3.8 8:25 PM CDT
2014-08-17
Medford, Oklahoma 96 miles 2.9 6:30 PM CDT
2014-08-17
Cherokee, Oklahoma 122 miles 2.6 11:50 AM CDT
2014-08-17
Medford, Oklahoma 96 miles 3.1 11:35 AM CDT
2014-08-17
Minimum magnitude displayed is 2.5.

Coastal Water Temperatures

Place Temperature
No Stations Reporting

Nearby Weather Stations